Accueil
METAR-TAF:

METAR-TAF

Aéroports :

Aéroport international de Wellington

Wellington, Nouvelle-Zélande

latitude: 41-20S, longitude: 174-48E, altitude: 12 m

Observation

Le bulletin a été fait il y a 39 minutes, à 11:30 UTC
Vent 5 kt de nord/nord-est
Température 5°C
Humidité 87%
Pression 1012 hPa
Visibilité 10 km ou plus

METAR: NZWN 181130Z AUTO 02005KT 9999 BKN039/// 05/03 Q1012 NOSIG

Heure: 00:09 (12:09 UTC)

Prévision

Le bulletin a été fait il y a 46 minutes, à 11:23 UTC
Prévision valable du 18 à 12 UTC au 19 à 12 UTC
Vent 5 kt de nord
Visibilité 10 km ou plus
Nuages épars à une hauteur de 4000 ft
Evoluant progressivement
du 19 à 01 UTC au 19 à 03 UTC
Vent 15 kt de nord/nord-ouest

TAF: NZWN 181123Z 1812/1912 01005KT 9999 SCT040 BECMG 1901/1903 34015KT

Observations et prévisions météorologiques de plus de 4000 aéroports (messages METAR et TAF).

Les stations disponibles sont représentées par des disques jaunes et rouges sur la carte.

Passer la souris dessus pour voir le nom de la station.

Cliquer dessus pour voir les observations et prévisions météorologiques.

Pour changer de carte: cliquez sur les boutons verts avec une croix noire pour zoomer, sur le bouton vert avec un tiret pour effectuer un zoom arrière, ou sur les flèches vertes pour les cartes adjacentes.


METAR-TAF: